createdAt,value
2022-11-15T00:00:14.226Z,8.47
2022-11-15T00:03:00.823Z,8.63
2022-11-15T00:05:48.346Z,11.03
2022-11-15T00:08:35.678Z,10.00
2022-11-15T00:11:22.650Z,11.83
2022-11-15T00:14:10.933Z,9.15
2022-11-15T00:16:57.735Z,6.87
2022-11-15T00:19:44.553Z,8.20
2022-11-15T00:22:34.662Z,9.27
2022-11-15T00:25:21.377Z,8.33
2022-11-15T00:28:09.008Z,9.33
2022-11-15T00:31:03.440Z,8.17
2022-11-15T00:33:50.146Z,9.27
2022-11-15T00:36:36.640Z,9.47
2022-11-15T00:39:23.493Z,10.87
2022-11-15T00:42:10.233Z,6.93
2022-11-15T00:44:56.941Z,7.43
2022-11-15T00:47:47.533Z,8.70
2022-11-15T00:50:34.463Z,11.27
2022-11-15T00:53:21.413Z,8.13
2022-11-15T00:56:08.772Z,8.73
2022-11-15T00:58:55.992Z,7.47
2022-11-15T01:01:42.928Z,8.50
2022-11-15T01:04:31.271Z,7.67
2022-11-15T01:07:17.966Z,9.20
2022-11-15T01:10:06.608Z,7.93
2022-11-15T01:12:53.468Z,8.80
2022-11-15T01:15:42.553Z,8.13
2022-11-15T01:18:29.242Z,8.47
2022-11-15T01:21:20.597Z,8.17
2022-11-15T01:24:08.430Z,6.70
2022-11-15T01:26:55.228Z,8.50
2022-11-15T01:29:42.009Z,9.20
2022-11-15T01:32:28.812Z,8.87
2022-11-15T01:35:15.905Z,7.17
2022-11-15T01:38:04.058Z,7.80
2022-11-15T01:40:51.270Z,7.17
2022-11-15T01:43:39.099Z,7.40
2022-11-15T01:46:31.514Z,7.35
2022-11-15T01:49:22.555Z,7.43
2022-11-15T01:52:14.323Z,8.07
2022-11-15T01:55:09.991Z,8.13
2022-11-15T01:58:03.459Z,7.30
2022-11-15T02:00:52.187Z,6.40
2022-11-15T02:03:48.020Z,5.73
2022-11-15T02:06:35.574Z,6.70
2022-11-15T02:09:22.494Z,8.53
2022-11-15T02:12:14.005Z,6.80
2022-11-15T02:15:01.430Z,6.60
2022-11-15T02:18:12.480Z,8.50
2022-11-15T02:21:18.144Z,8.30
2022-11-15T02:25:03.985Z,7.37
2022-11-15T02:28:39.212Z,6.97
2022-11-15T02:31:37.075Z,6.30
2022-11-15T02:34:35.693Z,8.40
2022-11-15T02:37:40.760Z,7.75
2022-11-15T02:40:42.775Z,5.93
2022-11-15T02:43:55.422Z,6.78
2022-11-15T02:47:05.804Z,7.70
2022-11-15T02:49:56.564Z,6.73
2022-11-15T02:52:46.696Z,5.40
2022-11-15T02:55:36.309Z,6.95
2022-11-15T02:58:56.653Z,6.57
2022-11-15T03:02:07.087Z,6.95
2022-11-15T03:04:58.732Z,5.88
2022-11-15T03:08:00.938Z,6.50
2022-11-15T03:11:04.834Z,4.88
2022-11-15T03:14:00.310Z,5.60
2022-11-15T03:16:54.671Z,5.50
2022-11-15T03:19:47.024Z,6.32
2022-11-15T03:22:41.011Z,8.38
2022-11-15T03:25:30.825Z,5.20
2022-11-15T03:28:24.379Z,5.60
2022-11-15T03:31:33.657Z,8.15
2022-11-15T03:34:39.051Z,7.15
2022-11-15T03:37:34.655Z,9.95
2022-11-15T03:40:31.211Z,6.30
2022-11-15T03:43:31.860Z,6.78
2022-11-15T03:46:28.074Z,5.65
2022-11-15T03:49:24.131Z,5.30
2022-11-15T03:52:13.238Z,4.38
2022-11-15T03:55:06.043Z,8.35
2022-11-15T03:57:59.874Z,6.32
2022-11-15T04:00:46.804Z,9.02
2022-11-15T04:03:33.678Z,6.10
2022-11-15T04:06:20.712Z,7.90
2022-11-15T04:09:08.985Z,5.82
2022-11-15T04:11:55.392Z,5.30
2022-11-15T04:15:02.316Z,9.35
2022-11-15T04:17:51.857Z,7.60
2022-11-15T04:20:56.425Z,7.68
2022-11-15T04:24:01.104Z,5.15
2022-11-15T04:26:49.264Z,9.10
2022-11-15T04:29:36.124Z,8.40
2022-11-15T04:32:22.806Z,6.70
2022-11-15T04:35:10.644Z,6.20
2022-11-15T04:37:58.443Z,8.65
2022-11-15T04:40:45.406Z,6.63
2022-11-15T04:43:34.078Z,7.88
2022-11-15T04:46:20.852Z,5.75
2022-11-15T04:49:07.582Z,8.07
2022-11-15T04:51:54.779Z,6.68
2022-11-15T04:54:43.006Z,5.20
2022-11-15T04:57:29.854Z,6.95
2022-11-15T05:00:19.575Z,6.05
2022-11-15T05:03:24.198Z,6.88
2022-11-15T05:06:11.082Z,5.55
2022-11-15T05:08:59.008Z,8.02
2022-11-15T05:11:46.510Z,6.00
2022-11-15T05:14:33.435Z,6.95
2022-11-15T05:17:21.425Z,5.53
2022-11-15T05:20:09.779Z,6.28
2022-11-15T05:22:57.160Z,6.22
2022-11-15T05:25:43.848Z,5.22
2022-11-15T05:28:30.389Z,5.47
2022-11-15T05:31:18.372Z,7.82
2022-11-15T05:34:07.456Z,5.97
2022-11-15T05:36:54.478Z,7.28
2022-11-15T05:39:41.428Z,9.10
2022-11-15T05:42:29.474Z,6.20
2022-11-15T05:45:18.523Z,6.45
2022-11-15T05:48:11.505Z,6.45
2022-11-15T05:51:00.408Z,5.35
2022-11-15T05:53:47.503Z,6.28
2022-11-15T05:56:34.641Z,7.60
2022-11-15T05:59:22.029Z,5.15
2022-11-15T06:02:09.022Z,6.07
2022-11-15T06:04:55.636Z,6.78
2022-11-15T06:07:45.088Z,6.68
2022-11-15T06:10:32.737Z,6.53
2022-11-15T06:13:19.741Z,4.93
2022-11-15T06:16:07.499Z,8.20
2022-11-15T06:18:54.364Z,9.10
2022-11-15T06:21:41.260Z,6.68
2022-11-15T06:24:29.397Z,6.97
2022-11-15T06:27:16.038Z,7.15
2022-11-15T06:30:03.077Z,6.22
2022-11-15T06:32:49.777Z,5.80
2022-11-15T06:35:38.157Z,5.57
2022-11-15T06:38:25.029Z,5.65
2022-11-15T06:41:15.376Z,5.70
2022-11-15T06:44:02.313Z,5.13
2022-11-15T06:46:49.153Z,6.88
2022-11-15T06:49:36.028Z,4.63
2022-11-15T06:52:23.164Z,4.28
2022-11-15T06:55:11.061Z,4.35
2022-11-15T06:57:59.013Z,5.32
2022-11-15T07:00:46.181Z,6.10
2022-11-15T07:03:33.946Z,4.78
2022-11-15T07:06:21.185Z,5.68
2022-11-15T07:09:08.134Z,4.32
2022-11-15T07:11:55.052Z,4.40
2022-11-15T07:14:43.079Z,8.32
2022-11-15T07:17:29.823Z,6.53
2022-11-15T07:20:17.837Z,5.25
2022-11-15T07:23:06.358Z,4.82
2022-11-15T07:25:53.087Z,7.03
2022-11-15T07:28:39.856Z,4.85
2022-11-15T07:31:28.338Z,4.30
2022-11-15T07:34:14.883Z,5.43
2022-11-15T07:37:01.337Z,6.60
2022-11-15T07:39:48.637Z,5.13
2022-11-15T07:42:53.161Z,3.30
2022-11-15T07:45:44.333Z,5.18
2022-11-15T07:48:43.358Z,3.67
2022-11-15T07:51:31.549Z,5.60
2022-11-15T07:54:18.254Z,5.13
2022-11-15T07:57:07.542Z,4.47
2022-11-15T07:59:54.958Z,5.25
2022-11-15T08:02:42.417Z,5.30
2022-11-15T08:05:30.289Z,4.97
2022-11-15T08:08:16.886Z,4.90
2022-11-15T08:11:03.785Z,5.65
2022-11-15T08:13:50.181Z,4.78
2022-11-15T08:16:36.728Z,2.63
2022-11-15T08:19:23.883Z,2.63
2022-11-15T08:22:11.781Z,3.50
2022-11-15T08:24:58.380Z,4.03
2022-11-15T08:27:45.755Z,1.98
2022-11-15T08:30:37.129Z,2.35
2022-11-15T08:33:23.917Z,2.55
2022-11-15T08:36:16.370Z,2.20
2022-11-15T08:39:05.877Z,2.53
2022-11-15T08:41:52.597Z,2.45
2022-11-15T08:44:39.858Z,3.03
2022-11-15T08:47:27.315Z,1.30
2022-11-15T08:50:13.916Z,1.33
2022-11-15T08:53:06.570Z,1.35
2022-11-15T08:55:54.866Z,2.28
2022-11-15T08:58:43.418Z,1.42
2022-11-15T09:01:30.321Z,1.92
2022-11-15T09:04:17.118Z,1.48
2022-11-15T09:07:04.003Z,3.47
2022-11-15T09:09:50.547Z,1.10
2022-11-15T09:12:39.069Z,2.00
2022-11-15T09:15:25.858Z,1.40
2022-11-15T09:18:12.705Z,1.52
2022-11-15T09:21:00.143Z,1.33
2022-11-15T09:23:46.887Z,3.40
2022-11-15T09:26:33.729Z,1.33
2022-11-15T09:29:21.620Z,2.33
2022-11-15T09:32:08.471Z,1.50
2022-11-15T09:34:55.049Z,2.15
2022-11-15T09:37:41.900Z,1.25
2022-11-15T09:40:29.173Z,2.35
2022-11-15T09:43:34.589Z,1.90
2022-11-15T09:46:38.694Z,1.60
2022-11-15T09:49:25.950Z,1.83
2022-11-15T09:52:13.537Z,2.13
2022-11-15T09:55:00.812Z,1.45
2022-11-15T09:57:56.217Z,1.58
2022-11-15T10:00:49.500Z,1.50
2022-11-15T10:03:42.890Z,1.52
2022-11-15T10:06:30.195Z,1.98
2022-11-15T10:09:24.272Z,0.85
2022-11-15T10:12:14.733Z,1.20
2022-11-15T10:15:07.220Z,1.27
2022-11-15T10:18:19.116Z,2.28
2022-11-15T10:21:19.504Z,1.08
2022-11-15T10:24:13.860Z,1.30
2022-11-15T10:27:00.331Z,1.75
2022-11-15T10:29:49.180Z,2.60
2022-11-15T10:32:38.759Z,1.23
2022-11-15T10:35:30.601Z,1.75
2022-11-15T10:38:18.721Z,1.25
2022-11-15T10:41:10.128Z,1.40
2022-11-15T10:44:13.360Z,1.13
2022-11-15T10:47:37.852Z,1.65
2022-11-15T10:50:32.975Z,2.53
2022-11-15T10:53:31.563Z,2.22
2022-11-15T10:56:25.261Z,2.03
2022-11-15T10:59:25.292Z,1.10
2022-11-15T11:02:32.909Z,0.80
2022-11-15T11:05:38.091Z,0.93
2022-11-15T11:08:30.133Z,1.73
2022-11-15T11:11:16.837Z,1.70
2022-11-15T11:14:15.347Z,3.85
2022-11-15T11:17:14.143Z,1.00
2022-11-15T11:20:12.533Z,1.60
2022-11-15T11:23:24.919Z,1.45
2022-11-15T11:26:42.822Z,1.45
2022-11-15T11:29:48.640Z,1.05
2022-11-15T11:33:18.359Z,1.20
2022-11-15T11:36:20.601Z,1.05
2022-11-15T11:39:27.274Z,0.95
2022-11-15T11:42:32.066Z,1.27
2022-11-15T11:45:50.079Z,1.23
2022-11-15T11:48:44.599Z,2.03
2022-11-15T11:51:43.753Z,1.55
2022-11-15T11:54:40.954Z,1.73
2022-11-15T11:57:51.901Z,3.75
2022-11-15T12:00:45.733Z,0.82
2022-11-15T12:03:43.081Z,1.00
2022-11-15T12:06:38.865Z,1.38
2022-11-15T12:09:34.162Z,0.90
2022-11-15T12:12:33.871Z,1.05
2022-11-15T12:15:25.629Z,1.85
2022-11-15T12:18:16.968Z,1.77
2022-11-15T12:21:10.734Z,2.10
2022-11-15T12:24:05.252Z,4.03
2022-11-15T12:26:59.850Z,1.30
2022-11-15T12:29:53.255Z,1.40
2022-11-15T12:32:50.994Z,2.47
2022-11-15T12:35:41.946Z,1.08
2022-11-15T12:38:56.638Z,1.98
2022-11-15T12:41:46.068Z,1.15
2022-11-15T12:45:02.259Z,3.95
2022-11-15T12:47:48.789Z,1.20
2022-11-15T12:50:59.020Z,1.05
2022-11-15T12:53:45.553Z,1.27
2022-11-15T12:56:33.989Z,1.48
2022-11-15T12:59:51.036Z,0.82
2022-11-15T13:02:42.527Z,1.30
2022-11-15T13:06:32.649Z,3.58
2022-11-15T13:09:57.378Z,1.08
2022-11-15T13:12:59.694Z,1.02
2022-11-15T13:15:58.044Z,2.05
2022-11-15T13:18:55.347Z,1.10
2022-11-15T13:22:05.441Z,0.98
2022-11-15T13:24:52.469Z,0.60
2022-11-15T13:27:39.353Z,0.50
2022-11-15T13:30:28.681Z,0.98
2022-11-15T13:33:20.679Z,0.90
2022-11-15T13:36:17.639Z,0.60
2022-11-15T13:39:07.607Z,1.35
2022-11-15T13:41:54.650Z,0.63
2022-11-15T13:44:41.150Z,0.77
2022-11-15T13:47:30.539Z,2.50
2022-11-15T13:50:17.892Z,0.88
2022-11-15T13:53:07.172Z,1.58
2022-11-15T13:55:56.360Z,1.13
2022-11-15T13:58:43.244Z,0.60
2022-11-15T14:01:33.905Z,1.02
2022-11-15T14:04:25.628Z,1.15
2022-11-15T14:07:21.169Z,1.58
2022-11-15T14:10:32.203Z,2.15
2022-11-15T14:13:31.565Z,1.80
2022-11-15T14:16:21.837Z,0.65
2022-11-15T14:19:13.567Z,0.70
2022-11-15T14:22:21.369Z,1.00
2022-11-15T14:25:20.740Z,0.70
2022-11-15T14:28:17.679Z,2.78
2022-11-15T14:31:13.474Z,1.95
2022-11-15T14:33:59.942Z,1.17
2022-11-15T14:36:46.828Z,1.63
2022-11-15T14:39:33.515Z,0.80
2022-11-15T14:42:22.014Z,1.27
2022-11-15T14:45:16.193Z,1.58
2022-11-15T14:48:03.081Z,3.08
2022-11-15T14:50:50.197Z,0.80
2022-11-15T14:53:37.092Z,1.33
2022-11-15T14:56:23.816Z,1.35
2022-11-15T14:59:10.614Z,1.83
2022-11-15T15:02:00.032Z,1.13
2022-11-15T15:04:46.905Z,1.35
2022-11-15T15:07:33.736Z,1.15
2022-11-15T15:13:29.629Z,1.20
2022-11-15T15:16:16.841Z,1.10
2022-11-15T15:19:05.045Z,2.35
2022-11-15T15:21:51.509Z,1.02
2022-11-15T15:24:38.117Z,1.65
2022-11-15T15:27:24.903Z,1.42
2022-11-15T15:30:13.275Z,1.08
2022-11-15T15:33:09.184Z,1.83
2022-11-15T15:35:57.500Z,2.85
2022-11-15T15:38:44.308Z,1.23
2022-11-15T15:41:31.060Z,2.65
2022-11-15T15:44:17.773Z,3.45
2022-11-15T15:47:12.237Z,4.03
2022-11-15T15:49:58.874Z,1.58
2022-11-15T15:52:46.731Z,3.03
2022-11-15T15:55:34.264Z,1.17
2022-11-15T15:58:20.746Z,3.15
2022-11-15T16:01:07.735Z,1.52
2022-11-15T16:03:54.475Z,4.05
2022-11-15T16:06:45.103Z,2.00
2022-11-15T16:09:50.623Z,1.90
2022-11-15T16:12:37.649Z,2.63
2022-11-15T16:15:31.747Z,3.30
2022-11-15T16:18:19.721Z,2.20
2022-11-15T16:21:06.834Z,1.17
2022-11-15T16:23:53.898Z,3.95
2022-11-15T16:26:42.227Z,4.40
2022-11-15T16:29:29.142Z,1.67
2022-11-15T16:32:17.069Z,2.88
2022-11-15T16:35:03.683Z,1.55
2022-11-15T16:37:51.209Z,1.88
2022-11-15T16:40:38.217Z,1.85
2022-11-15T16:43:26.182Z,3.40
2022-11-15T16:46:19.839Z,2.47
2022-11-15T16:49:06.328Z,5.32
2022-11-15T16:51:53.168Z,1.92
2022-11-15T16:54:39.791Z,2.53
2022-11-15T16:57:26.381Z,2.88
2022-11-15T17:00:16.855Z,2.42
2022-11-15T17:03:03.624Z,2.85
2022-11-15T17:05:50.761Z,2.05
2022-11-15T17:08:37.533Z,2.33
2022-11-15T17:11:24.506Z,3.72
2022-11-15T17:14:11.827Z,2.13
2022-11-15T17:17:00.845Z,2.60
2022-11-15T17:19:47.796Z,1.73
2022-11-15T17:22:34.563Z,1.73
2022-11-15T17:25:21.689Z,2.92
2022-11-15T17:28:08.409Z,2.33
2022-11-15T17:30:55.268Z,2.67
2022-11-15T17:33:43.085Z,2.97
2022-11-15T17:36:30.319Z,2.08
2022-11-15T17:39:18.585Z,2.58
2022-11-15T17:42:05.684Z,2.40
2022-11-15T17:44:51.962Z,2.45
2022-11-15T17:47:39.477Z,4.80
2022-11-15T17:50:28.338Z,2.63
2022-11-15T17:53:15.045Z,3.75
2022-11-15T17:56:04.698Z,2.38
2022-11-15T17:58:53.905Z,2.35
2022-11-15T18:01:40.482Z,2.83
2022-11-15T18:04:28.675Z,2.85
2022-11-15T18:07:16.737Z,5.53
2022-11-15T18:10:03.357Z,4.93
2022-11-15T18:12:50.021Z,3.35
2022-11-15T18:15:36.736Z,3.97
2022-11-15T18:18:23.384Z,2.13
2022-11-15T18:21:13.731Z,2.92
2022-11-15T18:24:03.426Z,2.42
2022-11-15T18:26:50.324Z,3.28
2022-11-15T18:29:37.880Z,3.20
2022-11-15T18:32:24.745Z,3.40
2022-11-15T18:35:11.302Z,2.45
2022-11-15T18:37:57.667Z,5.90
2022-11-15T18:40:45.761Z,3.35
2022-11-15T18:43:33.053Z,2.83
2022-11-15T18:46:22.510Z,2.47
2022-11-15T18:49:13.297Z,2.22
2022-11-15T18:51:59.958Z,2.70
2022-11-15T18:54:46.854Z,3.80
2022-11-15T18:57:34.688Z,3.47
2022-11-15T19:00:21.575Z,2.83
2022-11-15T19:03:08.078Z,2.42
2022-11-15T19:06:03.240Z,2.75
2022-11-15T19:08:53.018Z,4.32
2022-11-15T19:11:41.101Z,4.30
2022-11-15T19:14:29.374Z,4.13
2022-11-15T19:17:16.297Z,3.53
2022-11-15T19:20:03.336Z,3.53
2022-11-15T19:22:50.076Z,2.20
2022-11-15T19:25:36.547Z,2.72
2022-11-15T19:28:23.820Z,2.28
2022-11-15T19:31:15.109Z,2.45
2022-11-15T19:34:05.214Z,2.28
2022-11-15T19:36:51.825Z,1.52
2022-11-15T19:39:41.074Z,1.85
2022-11-15T19:42:28.095Z,3.13
2022-11-15T19:45:14.972Z,2.97
2022-11-15T19:48:02.769Z,3.60
2022-11-15T19:50:49.735Z,4.80
2022-11-15T19:53:37.903Z,3.72
2022-11-15T19:56:25.645Z,2.83
2022-11-15T19:59:13.535Z,2.05
2022-11-15T20:02:00.011Z,3.58
2022-11-15T20:04:48.154Z,2.65
2022-11-15T20:07:34.978Z,2.15
2022-11-15T20:10:21.470Z,3.85
2022-11-15T20:13:08.354Z,1.88
2022-11-15T20:15:56.524Z,1.95
2022-11-15T20:18:43.640Z,3.55
2022-11-15T20:21:31.997Z,2.38
2022-11-15T20:24:18.606Z,2.63
2022-11-15T20:27:05.386Z,3.05
2022-11-15T20:29:54.122Z,2.58
2022-11-15T20:32:41.327Z,3.47
2022-11-15T20:35:27.962Z,3.65
2022-11-15T20:38:16.705Z,3.38
2022-11-15T20:41:03.239Z,2.33
2022-11-15T20:43:50.120Z,2.55
2022-11-15T20:46:40.047Z,2.50
2022-11-15T20:49:26.908Z,3.13
2022-11-15T20:52:13.728Z,2.03
2022-11-15T20:55:01.581Z,2.08
2022-11-15T20:57:48.739Z,4.13
2022-11-15T21:00:36.722Z,2.72
2022-11-15T21:03:23.713Z,2.72
2022-11-15T21:06:10.909Z,3.08
2022-11-15T21:09:15.752Z,2.88
2022-11-15T21:12:13.261Z,4.15
2022-11-15T21:15:00.301Z,2.40
2022-11-15T21:17:47.220Z,3.60
2022-11-15T21:20:34.156Z,2.33
2022-11-15T21:23:21.250Z,2.55
2022-11-15T21:26:08.217Z,2.17
2022-11-15T21:28:56.182Z,2.70
2022-11-15T21:31:42.961Z,1.95
2022-11-15T21:34:30.005Z,2.60
2022-11-15T21:37:17.046Z,2.45
2022-11-15T21:40:03.860Z,2.20
2022-11-15T21:42:50.809Z,3.13
2022-11-15T21:45:39.806Z,3.22
2022-11-15T21:48:26.824Z,2.00
2022-11-15T21:51:13.784Z,3.63
2022-11-15T21:54:00.863Z,3.85
2022-11-15T21:56:47.531Z,4.95
2022-11-15T21:59:34.445Z,2.17
2022-11-15T22:02:21.859Z,2.55
2022-11-15T22:05:09.550Z,2.22
2022-11-15T22:07:56.038Z,2.40
2022-11-15T22:10:42.775Z,4.85
2022-11-15T22:13:29.611Z,2.60
2022-11-15T22:16:16.268Z,5.55
2022-11-15T22:19:05.038Z,2.33
2022-11-15T22:21:51.973Z,3.30
2022-11-15T22:24:39.109Z,2.63
2022-11-15T22:27:25.802Z,3.53
2022-11-15T22:30:13.742Z,2.92
2022-11-15T22:33:00.619Z,4.35
2022-11-15T22:35:49.445Z,2.90
2022-11-15T22:38:36.460Z,3.90
2022-11-15T22:41:23.323Z,2.50
2022-11-15T22:44:09.974Z,2.80
2022-11-15T22:46:56.753Z,2.92
2022-11-15T22:49:44.432Z,3.17
2022-11-15T22:52:32.617Z,3.20
2022-11-15T22:55:19.856Z,4.22
2022-11-15T22:58:06.416Z,2.92
2022-11-15T23:00:55.696Z,2.63
2022-11-15T23:03:42.302Z,3.00
2022-11-15T23:06:28.977Z,2.65
2022-11-15T23:09:34.952Z,3.85
2022-11-15T23:12:53.949Z,3.75
2022-11-15T23:15:58.650Z,2.63
2022-11-15T23:18:45.294Z,3.78
2022-11-15T23:21:53.010Z,3.10
2022-11-15T23:24:41.350Z,2.53
2022-11-15T23:27:28.013Z,4.13
2022-11-15T23:30:32.696Z,3.00
2022-11-15T23:33:36.474Z,3.22
2022-11-15T23:36:23.202Z,2.92
2022-11-15T23:39:10.505Z,5.25
2022-11-15T23:41:59.753Z,5.95
2022-11-15T23:44:50.495Z,2.80
2022-11-15T23:47:36.955Z,3.80
2022-11-15T23:50:23.743Z,3.03
2022-11-15T23:53:10.488Z,5.10
2022-11-15T23:56:03.296Z,2.58
2022-11-15T23:58:51.518Z,4.75
